Time;durP1;ratioP1;P1;durP2;ratioP2;P2;SDS_P1;SDS_P2;PMS_P1;PMS_P2;Temp;Humidity;BMP_temperature;BMP_pressure;BME280_temperature;BME280_humidity;BME280_pressure;Samples;Min_cycle;Max_cycle;Signal;HPM_P1;HPM_P2
2022/06/08 00:01:46;;;;;;;8.85;4.00;;;11.30;99.90;;;;;;5026852;28;20048;-82
2022/06/08 00:04:13;;;;;;;9.45;4.45;;;11.30;99.90;;;;;;5033062;28;20041;-82
2022/06/08 00:06:39;;;;;;;6.70;4.38;;;11.30;99.90;;;;;;5032028;28;20044;-82
2022/06/08 00:09:05;;;;;;;6.53;4.22;;;11.30;99.90;;;;;;5048430;28;20515;-82
2022/06/08 00:11:30;;;;;;;7.50;3.90;;;11.30;99.90;;;;;;5050255;28;20059;-82
2022/06/08 00:13:56;;;;;;;5.65;4.05;;;11.30;99.90;;;;;;5031023;28;20047;-82
2022/06/08 00:16:22;;;;;;;7.00;4.60;;;11.20;99.90;;;;;;5048722;28;20091;-83
2022/06/08 00:18:47;;;;;;;7.47;4.43;;;11.20;99.90;;;;;;5049995;28;20540;-83
2022/06/08 00:21:14;;;;;;;8.20;4.20;;;11.20;99.90;;;;;;5048876;28;20033;-83
2022/06/08 00:23:41;;;;;;;6.82;4.18;;;11.10;99.90;;;;;;5033270;28;20044;-82
2022/06/08 00:26:06;;;;;;;7.93;4.18;;;11.10;99.90;;;;;;5048208;28;20036;-82
2022/06/08 00:28:33;;;;;;;7.30;4.47;;;11.10;99.90;;;;;;5048649;28;20091;-82
2022/06/08 00:30:59;;;;;;;7.13;4.05;;;11.00;99.90;;;;;;5048963;28;20449;-81
2022/06/08 00:33:24;;;;;;;6.55;4.30;;;11.00;99.90;;;;;;5049511;28;20036;-82
2022/06/08 00:35:50;;;;;;;6.15;4.22;;;11.00;99.90;;;;;;5049295;28;20071;-82
2022/06/08 00:38:16;;;;;;;6.28;4.13;;;11.00;99.90;;;;;;5048578;28;20075;-82
2022/06/08 00:41:12;;;;;;;10.55;4.22;;;11.00;99.90;;;;;;5049771;28;20037;-82
2022/06/08 00:43:38;;;;;;;8.65;4.15;;;11.00;99.90;;;;;;5047506;28;20099;-81
2022/06/08 00:46:05;;;;;;;6.15;3.90;;;10.90;99.90;;;;;;5028725;28;20037;-81
2022/06/08 00:48:37;;;;;;;9.00;4.63;;;10.90;99.90;;;;;;5047254;28;20059;-82
2022/06/08 00:51:03;;;;;;;7.78;3.90;;;10.90;99.90;;;;;;5044009;28;20441;-82
2022/06/08 00:53:45;;;;;;;8.77;4.47;;;10.80;99.90;;;;;;5049356;28;20040;-82
2022/06/08 00:56:17;;;;;;;5.93;4.38;;;10.80;99.90;;;;;;5049260;28;20129;-81
2022/06/08 00:58:43;;;;;;;6.10;4.13;;;10.80;99.90;;;;;;5047553;28;20071;-82
2022/06/08 01:01:10;;;;;;;10.50;4.60;;;10.80;99.90;;;;;;5048081;28;20049;-82
2022/06/08 01:03:36;;;;;;;9.63;4.60;;;10.80;99.90;;;;;;5049074;28;20383;-81
2022/06/08 01:06:19;;;;;;;8.30;5.05;;;10.80;99.90;;;;;;5045962;28;20895;-82
2022/06/08 01:08:47;;;;;;;6.00;4.43;;;10.80;99.90;;;;;;5030185;28;20142;-81
2022/06/08 01:11:25;;;;;;;5.25;4.53;;;10.80;99.90;;;;;;5047942;28;20051;-82
2022/06/08 01:13:52;;;;;;;5.72;4.60;;;10.80;99.90;;;;;;5041278;28;20457;-81
2022/06/08 01:16:18;;;;;;;6.28;4.30;;;10.80;99.90;;;;;;5031222;28;20060;-82
2022/06/08 01:18:43;;;;;;;8.98;4.40;;;10.70;99.90;;;;;;5048802;28;20040;-82
2022/06/08 01:21:21;;;;;;;8.23;4.68;;;10.70;99.90;;;;;;5048043;28;20045;-82
2022/06/08 01:23:49;;;;;;;5.45;4.22;;;10.70;99.90;;;;;;5044470;28;20059;-82
2022/06/08 01:26:56;;;;;;;7.30;4.47;;;10.60;99.90;;;;;;5048952;28;20119;-82
2022/06/08 01:29:23;;;;;;;8.68;4.97;;;10.60;99.90;;;;;;5037091;28;20110;-82
2022/06/08 01:31:58;;;;;;;8.25;4.78;;;10.60;99.90;;;;;;5047731;28;20065;-82
2022/06/08 01:34:23;;;;;;;7.05;4.22;;;10.60;99.90;;;;;;5048145;28;20414;-82
2022/06/08 01:37:04;;;;;;;7.50;4.28;;;10.50;99.90;;;;;;5025307;28;20043;-82
2022/06/08 01:39:54;;;;;;;8.52;4.60;;;10.50;99.90;;;;;;5047001;28;20098;-82
2022/06/08 01:43:04;;;;;;;6.60;4.65;;;10.50;99.90;;;;;;5046499;28;20049;-83
2022/06/08 01:45:47;;;;;;;5.85;4.60;;;10.40;99.90;;;;;;5046128;28;20607;-82
2022/06/08 01:48:47;;;;;;;8.00;4.72;;;10.50;99.90;;;;;;5049059;28;20033;-82
2022/06/08 01:51:51;;;;;;;11.55;5.30;;;10.50;99.90;;;;;;5032205;28;20045;-83
2022/06/08 01:54:22;;;;;;;7.90;4.77;;;10.40;99.90;;;;;;5045850;28;20033;-82
2022/06/08 01:56:57;;;;;;;9.80;4.82;;;10.40;99.90;;;;;;5039350;28;20306;-82
2022/06/08 01:59:51;;;;;;;8.75;5.35;;;10.40;99.90;;;;;;5030271;28;20510;-83
2022/06/08 02:02:30;;;;;;;7.57;4.85;;;10.40;99.90;;;;;;5043584;28;20044;-82
2022/06/08 02:05:21;;;;;;;6.28;4.78;;;10.40;99.90;;;;;;5024028;28;20129;-82
2022/06/08 02:08:31;;;;;;;6.55;4.70;;;10.40;99.90;;;;;;5040808;28;20421;-82
2022/06/08 02:11:09;;;;;;;6.97;4.50;;;10.40;99.90;;;;;;5029380;28;20044;-82
2022/06/08 02:13:44;;;;;;;7.70;4.93;;;10.40;99.90;;;;;;5048359;28;20047;-83
2022/06/08 02:16:24;;;;;;;9.25;5.15;;;10.40;99.90;;;;;;5031227;28;20044;-82
2022/06/08 02:18:59;;;;;;;8.68;4.82;;;10.40;99.90;;;;;;5049005;28;20399;-82
2022/06/08 02:21:42;;;;;;;8.95;5.20;;;10.40;99.90;;;;;;5051773;28;20034;-82
2022/06/08 02:24:29;;;;;;;8.15;5.25;;;10.40;99.90;;;;;;5051009;28;20044;-83
2022/06/08 02:27:03;;;;;;;8.30;5.45;;;10.50;99.90;;;;;;5044550;28;20041;-82
2022/06/08 02:29:47;;;;;;;9.95;5.85;;;10.50;99.90;;;;;;5042368;28;20048;-82
2022/06/08 02:35:14;;;;;;;8.05;5.70;;;10.50;99.90;;;;;;5049949;28;20068;-82
2022/06/08 02:37:43;;;;;;;8.93;5.95;;;10.40;99.90;;;;;;5033383;28;20504;-81
2022/06/08 02:40:30;;;;;;;9.98;6.13;;;10.40;99.90;;;;;;5051001;28;20049;-81
2022/06/08 02:43:00;;;;;;;9.73;6.03;;;10.40;99.90;;;;;;5037575;28;20041;-81
2022/06/08 02:45:30;;;;;;;11.00;6.03;;;10.40;99.90;;;;;;5050290;28;20086;-82
2022/06/08 02:48:02;;;;;;;8.85;6.57;;;10.30;99.90;;;;;;5050083;28;20098;-82
2022/06/08 02:50:29;;;;;;;10.45;6.65;;;10.30;99.90;;;;;;5051266;28;20384;-82
2022/06/08 02:53:16;;;;;;;10.95;7.10;;;10.30;99.90;;;;;;5050437;28;20120;-82
2022/06/08 02:56:12;;;;;;;12.45;7.40;;;10.30;99.90;;;;;;5049666;28;20491;-81
2022/06/08 02:58:49;;;;;;;11.50;7.20;;;10.20;99.90;;;;;;5050848;28;20037;-82
2022/06/08 03:01:55;;;;;;;10.52;7.20;;;10.20;99.90;;;;;;5050420;28;20087;-82
2022/06/08 03:04:28;;;;;;;9.65;7.20;;;10.20;99.90;;;;;;5024397;28;20041;-81
2022/06/08 03:06:59;;;;;;;11.75;7.80;;;10.20;99.90;;;;;;5046720;28;20515;-81
2022/06/08 03:09:25;;;;;;;9.50;7.72;;;10.20;99.90;;;;;;5034556;28;20044;-81
2022/06/08 03:11:56;;;;;;;12.68;7.80;;;10.30;99.90;;;;;;5050249;28;20087;-82
2022/06/08 03:14:22;;;;;;;11.57;7.97;;;10.30;99.90;;;;;;5033688;28;20115;-81
2022/06/08 03:16:58;;;;;;;14.38;7.93;;;10.20;99.90;;;;;;5048448;28;20036;-82
2022/06/08 03:19:27;;;;;;;12.52;7.78;;;10.20;99.90;;;;;;5049717;28;20129;-82
2022/06/08 03:21:54;;;;;;;13.60;8.63;;;10.30;99.90;;;;;;5050941;28;20059;-82
2022/06/08 03:24:21;;;;;;;15.35;9.15;;;10.20;99.90;;;;;;5048390;28;20041;-81
2022/06/08 03:26:50;;;;;;;13.27;8.65;;;10.30;99.90;;;;;;5048332;28;20091;-81
2022/06/08 03:29:17;;;;;;;10.52;7.93;;;10.20;99.90;;;;;;5050065;28;20414;-82
2022/06/08 03:31:42;;;;;;;12.82;8.35;;;10.30;99.90;;;;;;5050736;28;20071;-81
2022/06/08 03:34:08;;;;;;;13.35;8.73;;;10.30;99.90;;;;;;5048353;28;20052;-81
2022/06/08 03:36:34;;;;;;;12.50;8.43;;;10.30;99.90;;;;;;5033155;28;20072;-81
2022/06/08 03:39:00;;;;;;;13.32;8.60;;;10.30;99.90;;;;;;5033786;28;20051;-81
2022/06/08 03:41:25;;;;;;;13.02;8.95;;;10.30;99.90;;;;;;5050581;28;20518;-81
2022/06/08 03:43:51;;;;;;;13.90;8.98;;;10.30;99.90;;;;;;5049779;28;20513;-82
2022/06/08 03:46:17;;;;;;;12.57;9.10;;;10.30;99.90;;;;;;5050781;28;20485;-82
2022/06/08 03:48:46;;;;;;;13.35;8.88;;;10.40;99.90;;;;;;5049672;28;20033;-81
2022/06/08 03:51:13;;;;;;;14.00;9.57;;;10.40;99.90;;;;;;5050151;28;20036;-82
2022/06/08 03:53:55;;;;;;;14.45;9.95;;;10.40;99.90;;;;;;5050315;28;20399;-81
2022/06/08 03:56:23;;;;;;;14.48;9.90;;;10.40;99.90;;;;;;5048089;28;20075;-81
2022/06/08 03:58:49;;;;;;;17.00;10.43;;;10.50;99.90;;;;;;5034058;28;20478;-80
2022/06/08 04:01:15;;;;;;;14.68;10.18;;;10.50;99.90;;;;;;5050416;28;20072;-81
2022/06/08 04:03:41;;;;;;;15.00;10.30;;;10.50;99.90;;;;;;5033318;28;20112;-80
2022/06/08 04:06:06;;;;;;;13.80;10.18;;;10.60;99.90;;;;;;5049136;28;20463;-81
2022/06/08 04:08:32;;;;;;;15.52;10.38;;;10.60;99.90;;;;;;5050025;28;20037;-81
2022/06/08 04:10:58;;;;;;;16.02;10.75;;;10.70;99.90;;;;;;5032666;28;20033;-81
2022/06/08 04:13:25;;;;;;;16.30;10.60;;;10.80;99.90;;;;;;5048069;28;20524;-81
2022/06/08 04:15:50;;;;;;;16.30;10.95;;;10.90;99.90;;;;;;5049675;28;20090;-81
2022/06/08 04:18:21;;;;;;;16.85;10.68;;;10.90;99.90;;;;;;5049270;28;20037;-81
2022/06/08 04:20:50;;;;;;;15.23;10.52;;;11.10;99.90;;;;;;5025812;28;20025;-81
2022/06/08 04:23:18;;;;;;;17.25;10.55;;;11.10;99.90;;;;;;5049991;28;20048;-81
2022/06/08 04:25:43;;;;;;;16.05;11.15;;;11.20;99.90;;;;;;5031504;28;20040;-81
2022/06/08 04:28:10;;;;;;;17.00;11.40;;;11.30;99.90;;;;;;5050213;28;20041;-82
2022/06/08 04:30:36;;;;;;;17.73;10.45;;;11.50;99.90;;;;;;5048469;28;20040;-82
2022/06/08 04:33:02;;;;;;;16.92;11.52;;;11.50;99.90;;;;;;5032824;28;20466;-82
2022/06/08 04:35:29;;;;;;;17.58;12.32;;;11.70;99.90;;;;;;5049293;28;20036;-81
2022/06/08 04:37:54;;;;;;;22.73;12.20;;;11.80;99.90;;;;;;5046628;28;20120;-82
2022/06/08 04:40:21;;;;;;;15.55;11.05;;;11.90;99.90;;;;;;5030843;28;20124;-82
2022/06/08 04:42:47;;;;;;;16.42;12.10;;;12.00;99.90;;;;;;5031751;28;20037;-81
2022/06/08 04:45:13;;;;;;;18.27;12.60;;;12.00;99.90;;;;;;5048065;28;20589;-81
2022/06/08 04:47:39;;;;;;;17.15;13.30;;;12.00;99.90;;;;;;5048917;28;20049;-82
2022/06/08 04:50:07;;;;;;;18.60;12.57;;;12.00;99.90;;;;;;5049800;28;20582;-81
2022/06/08 04:52:33;;;;;;;20.08;13.75;;;12.00;99.90;;;;;;5048609;28;20052;-81
2022/06/08 04:54:59;;;;;;;19.45;13.27;;;12.10;99.90;;;;;;5047589;28;20392;-81
2022/06/08 04:57:25;;;;;;;19.35;13.30;;;12.20;99.90;;;;;;5031643;28;20106;-81
2022/06/08 04:59:50;;;;;;;19.50;13.60;;;12.10;99.90;;;;;;5048729;28;20029;-81
2022/06/08 05:02:42;;;;;;;18.95;13.90;;;12.10;99.90;;;;;;5049410;28;20044;-81
2022/06/08 05:05:03;;;;;;;19.73;13.90;;;12.10;99.90;;;;;;5046902;28;20127;-80
2022/06/08 05:07:28;;;;;;;22.50;15.40;;;12.20;99.90;;;;;;5046578;28;20128;-80
2022/06/08 05:09:54;;;;;;;18.85;14.73;;;12.20;99.90;;;;;;5048193;28;20128;-81
2022/06/08 05:12:19;;;;;;;19.88;14.30;;;12.30;99.90;;;;;;5049074;28;20048;-81
2022/06/08 05:14:45;;;;;;;22.13;14.45;;;12.30;99.90;;;;;;5047699;28;20041;-80
2022/06/08 05:17:10;;;;;;;23.50;14.50;;;12.30;99.90;;;;;;5032851;28;20040;-81
2022/06/08 05:19:36;;;;;;;22.48;15.82;;;12.40;99.90;;;;;;5048155;28;20041;-80
2022/06/08 05:22:01;;;;;;;24.90;15.65;;;12.40;99.90;;;;;;5049504;28;20052;-80
2022/06/08 05:24:27;;;;;;;21.70;15.98;;;12.40;99.90;;;;;;5049009;28;20086;-80
2022/06/08 05:26:52;;;;;;;23.38;16.40;;;12.50;99.90;;;;;;5046268;28;20519;-80
2022/06/08 05:29:18;;;;;;;24.63;15.93;;;12.50;99.90;;;;;;5049439;28;20041;-81
2022/06/08 05:31:43;;;;;;;21.27;16.17;;;12.60;99.90;;;;;;5045931;28;20045;-80
2022/06/08 05:34:09;;;;;;;21.58;15.23;;;12.60;99.90;;;;;;5045321;28;20033;-80
2022/06/08 05:36:35;;;;;;;25.95;16.30;;;12.70;99.90;;;;;;5032572;28;20471;-80
2022/06/08 05:39:00;;;;;;;24.33;17.73;;;12.70;99.90;;;;;;5049389;28;20110;-80
2022/06/08 05:41:26;;;;;;;24.88;17.45;;;12.80;99.90;;;;;;5049730;28;20415;-80
2022/06/08 05:43:51;;;;;;;23.50;17.10;;;12.90;99.90;;;;;;5048658;28;20029;-81
2022/06/08 05:46:17;;;;;;;25.95;18.38;;;12.90;99.90;;;;;;5043544;28;20037;-80
2022/06/08 05:48:43;;;;;;;25.73;17.85;;;13.00;99.90;;;;;;5042981;28;20044;-80
2022/06/08 05:51:09;;;;;;;27.13;18.05;;;13.10;99.90;;;;;;5026623;28;20790;-80
2022/06/08 05:53:34;;;;;;;28.77;18.33;;;13.20;99.90;;;;;;5046608;28;20071;-81
2022/06/08 05:56:00;;;;;;;25.55;18.42;;;13.30;99.90;;;;;;5046362;28;20077;-80
2022/06/08 05:58:26;;;;;;;25.50;18.90;;;13.40;99.90;;;;;;5045353;28;20040;-80
2022/06/08 06:00:51;;;;;;;24.83;19.05;;;13.50;99.90;;;;;;5046882;28;20036;-80
2022/06/08 06:03:18;;;;;;;26.05;18.92;;;13.50;99.90;;;;;;5046446;28;20640;-81
2022/06/08 06:05:44;;;;;;;25.65;19.35;;;13.70;99.90;;;;;;5029747;28;20033;-81
2022/06/08 06:08:10;;;;;;;28.15;18.70;;;13.80;99.90;;;;;;5047946;28;20052;-80
2022/06/08 06:10:38;;;;;;;29.73;19.25;;;13.90;99.90;;;;;;5052608;28;20033;-79
2022/06/08 06:13:04;;;;;;;28.73;19.02;;;13.90;99.90;;;;;;5051733;28;20048;-79
2022/06/08 06:15:30;;;;;;;25.27;17.98;;;14.00;99.90;;;;;;5052124;28;20036;-80
2022/06/08 06:17:56;;;;;;;27.38;18.15;;;14.10;99.90;;;;;;5036943;28;20552;-81
2022/06/08 06:20:22;;;;;;;22.92;18.02;;;14.20;99.90;;;;;;5052153;28;20029;-81
2022/06/08 06:22:47;;;;;;;26.67;18.08;;;14.30;99.90;;;;;;5051440;28;20326;-81
2022/06/08 06:25:13;;;;;;;24.88;17.98;;;14.40;99.90;;;;;;5053405;28;20036;-80
2022/06/08 06:27:39;;;;;;;25.52;17.95;;;14.60;99.90;;;;;;5051070;28;20092;-81
2022/06/08 06:30:06;;;;;;;25.25;17.33;;;14.70;99.90;;;;;;5052393;28;20072;-80
2022/06/08 06:32:35;;;;;;;25.10;17.63;;;14.80;99.90;;;;;;5052103;28;20069;-82
2022/06/08 06:35:02;;;;;;;22.42;16.73;;;14.90;99.90;;;;;;5036186;28;20514;-81
2022/06/08 06:37:29;;;;;;;23.48;16.80;;;15.00;99.90;;;;;;5052430;28;20041;-82
2022/06/08 06:39:55;;;;;;;24.52;17.05;;;15.10;99.90;;;;;;5051894;28;20045;-80
2022/06/08 06:42:26;;;;;;;21.35;16.73;;;15.20;99.90;;;;;;5052139;28;20045;-81
2022/06/08 06:44:53;;;;;;;20.90;15.85;;;15.30;99.90;;;;;;5052769;28;20037;-82
2022/06/08 06:47:20;;;;;;;22.42;16.05;;;15.30;99.90;;;;;;5035849;28;20029;-82
2022/06/08 06:49:46;;;;;;;24.55;15.52;;;15.50;99.90;;;;;;5052849;28;20495;-80
2022/06/08 06:52:13;;;;;;;21.40;15.18;;;15.60;99.90;;;;;;5051383;28;20086;-81
2022/06/08 06:54:40;;;;;;;21.92;16.13;;;15.70;99.90;;;;;;5053771;28;20056;-82
2022/06/08 06:57:06;;;;;;;21.85;14.82;;;15.80;99.90;;;;;;5051730;28;20407;-82
2022/06/08 06:59:32;;;;;;;18.48;14.25;;;15.80;99.90;;;;;;5049266;28;20047;-83
2022/06/08 07:01:58;;;;;;;19.48;13.77;;;15.80;99.90;;;;;;5036155;28;20037;-81
2022/06/08 07:04:24;;;;;;;19.88;14.10;;;15.90;99.90;;;;;;5050153;28;20162;-81
2022/06/08 07:06:49;;;;;;;18.88;14.15;;;15.90;99.90;;;;;;5053025;28;20064;-82
2022/06/08 07:09:15;;;;;;;20.80;13.65;;;16.00;99.90;;;;;;5053532;28;20149;-80
2022/06/08 07:11:41;;;;;;;17.38;12.98;;;16.00;99.90;;;;;;5052653;28;20041;-80
2022/06/08 07:14:12;;;;;;;17.23;12.18;;;16.10;99.90;;;;;;5052082;28;20033;-80
2022/06/08 07:16:37;;;;;;;16.10;12.43;;;16.30;99.90;;;;;;5037850;28;20163;-80
2022/06/08 07:19:05;;;;;;;15.68;11.48;;;16.40;99.90;;;;;;5053065;28;20037;-82
2022/06/08 07:21:32;;;;;;;19.40;12.25;;;16.50;99.90;;;;;;5052870;28;20091;-80
2022/06/08 07:23:57;;;;;;;15.70;10.95;;;16.90;99.90;;;;;;5053892;28;20068;-81
2022/06/08 07:26:24;;;;;;;12.75;10.05;;;17.00;99.90;;;;;;5050816;28;20068;-79
2022/06/08 07:28:52;;;;;;;13.15;10.18;;;17.20;99.90;;;;;;5052638;28;20041;-82
2022/06/08 07:31:18;;;;;;;12.63;9.32;;;17.30;99.90;;;;;;5053652;28;20071;-81
2022/06/08 07:33:43;;;;;;;12.88;9.43;;;17.40;99.90;;;;;;5051894;28;20041;-79
2022/06/08 07:36:09;;;;;;;10.30;8.20;;;17.30;99.90;;;;;;5052337;28;20071;-80
2022/06/08 07:38:35;;;;;;;10.50;8.00;;;17.30;99.90;;;;;;5053706;28;20475;-81
2022/06/08 07:41:01;;;;;;;12.00;8.00;;;17.30;99.90;;;;;;5053071;28;20044;-79
2022/06/08 07:43:26;;;;;;;10.05;7.40;;;17.20;99.90;;;;;;5052684;28;20044;-81
2022/06/08 07:45:52;;;;;;;10.07;7.50;;;17.20;99.90;;;;;;5051842;28;20499;-81
2022/06/08 07:51:02;;;;;;;;;;;17.10;99.90;;;;;;5053005;28;20045;-80
2022/06/08 07:53:27;;;;;;;9.73;6.70;;;17.10;99.90;;;;;;5051985;28;20308;-79
2022/06/08 07:55:53;;;;;;;9.63;6.68;;;17.20;99.90;;;;;;5052001;28;20041;-80
2022/06/08 07:58:19;;;;;;;8.65;6.18;;;17.20;99.90;;;;;;5052301;28;20043;-79
2022/06/08 08:00:47;;;;;;;8.60;6.47;;;17.30;99.90;;;;;;5052509;28;20403;-80
2022/06/08 08:03:19;;;;;;;8.95;6.53;;;17.30;99.90;;;;;;5052012;28;20093;-80
2022/06/08 08:05:46;;;;;;;12.38;6.50;;;17.50;99.90;;;;;;5051450;28;20033;-80
2022/06/08 08:08:13;;;;;;;8.55;5.60;;;17.70;99.90;;;;;;5052263;28;20056;-80
2022/06/08 08:10:39;;;;;;;7.43;5.38;;;17.90;99.90;;;;;;5052898;28;20055;-79
2022/06/08 08:13:07;;;;;;;7.25;5.20;;;18.10;99.90;;;;;;5035558;28;20123;-80
2022/06/08 08:15:33;;;;;;;6.70;4.55;;;18.20;99.90;;;;;;5051326;28;20047;-80
2022/06/08 08:17:58;;;;;;;5.50;4.28;;;18.10;99.90;;;;;;5035436;28;20047;-80
2022/06/08 08:20:26;;;;;;;7.22;4.28;;;18.20;99.90;;;;;;5052078;28;20048;-80
2022/06/08 08:22:52;;;;;;;7.30;4.38;;;18.20;99.90;;;;;;5052021;28;20396;-80
2022/06/08 08:25:18;;;;;;;7.60;4.18;;;18.20;99.90;;;;;;5034664;28;20179;-81
2022/06/08 08:27:46;;;;;;;6.82;3.97;;;18.20;99.90;;;;;;5035177;28;20029;-80
2022/06/08 08:30:14;;;;;;;5.38;3.88;;;18.30;99.90;;;;;;5052140;28;20572;-80
2022/06/08 08:32:40;;;;;;;7.05;3.65;;;18.30;99.90;;;;;;5051252;28;20111;-80
2022/06/08 08:35:06;;;;;;;5.88;3.40;;;18.50;99.90;;;;;;5053240;28;20399;-80
2022/06/08 08:37:32;;;;;;;5.05;3.50;;;18.50;99.90;;;;;;5051862;28;20037;-80
2022/06/08 08:39:58;;;;;;;6.53;3.17;;;18.60;99.90;;;;;;5051022;28;20114;-80
2022/06/08 08:42:24;;;;;;;4.00;3.00;;;18.70;99.90;;;;;;5050606;28;20045;-80
2022/06/08 08:45:06;;;;;;;3.85;2.70;;;18.90;99.90;;;;;;5049379;28;20037;-81
2022/06/08 08:47:35;;;;;;;4.30;2.40;;;19.10;99.90;;;;;;5051631;28;20044;-80
2022/06/08 08:50:29;;;;;;;4.43;2.30;;;19.20;99.90;;;;;;5051541;28;20083;-80
2022/06/08 08:53:23;;;;;;;2.83;1.80;;;19.10;99.90;;;;;;5051299;28;20499;-80
2022/06/08 08:55:50;;;;;;;3.95;1.83;;;19.00;99.90;;;;;;5033645;28;20045;-80
2022/06/08 08:58:21;;;;;;;3.53;1.83;;;19.10;99.90;;;;;;5050240;28;20095;-80
2022/06/08 09:00:58;;;;;;;4.43;1.70;;;19.20;99.90;;;;;;5050642;28;20068;-80
2022/06/08 09:03:40;;;;;;;2.35;1.40;;;19.50;99.90;;;;;;5034121;28;20045;-80
2022/06/08 09:06:33;;;;;;;3.60;1.80;;;19.60;99.90;;;;;;5050692;28;20036;-79
2022/06/08 09:09:03;;;;;;;5.10;2.17;;;19.80;99.90;;;;;;5052057;28;20048;-81
2022/06/08 09:11:42;;;;;;;4.90;2.00;;;19.80;99.90;;;;;;5034335;28;20048;-80
2022/06/08 09:14:14;;;;;;;5.13;2.00;;;19.90;99.90;;;;;;5049570;28;20127;-81
2022/06/08 09:16:46;;;;;;;2.88;1.83;;;20.20;99.90;;;;;;5050779;28;20094;-81
2022/06/08 09:19:28;;;;;;;3.90;1.80;;;20.40;99.90;;;;;;5051716;28;20123;-80
2022/06/08 09:22:03;;;;;;;5.07;1.95;;;20.40;99.90;;;;;;5050471;28;20081;-81
2022/06/08 09:24:34;;;;;;;4.15;1.80;;;20.60;99.90;;;;;;5033773;28;20037;-81
2022/06/08 09:27:35;;;;;;;3.10;1.30;;;20.60;99.90;;;;;;5048549;28;20066;-81
2022/06/08 09:30:00;;;;;;;4.85;1.25;;;20.70;99.90;;;;;;5017500;28;20064;-80
2022/06/08 09:32:29;;;;;;;3.17;1.42;;;20.90;99.90;;;;;;5050284;28;20085;-81
2022/06/08 09:34:58;;;;;;;4.30;1.50;;;20.80;99.90;;;;;;5049485;28;20056;-81
2022/06/08 09:37:24;;;;;;;2.78;1.70;;;20.80;99.90;;;;;;5050225;28;20041;-81
2022/06/08 09:39:52;;;;;;;3.95;2.22;;;20.70;99.90;;;;;;5033332;28;20041;-81
2022/06/08 09:42:39;;;;;;;3.33;1.85;;;20.60;99.90;;;;;;5049884;28;20045;-80
2022/06/08 09:45:20;;;;;;;3.50;1.65;;;20.70;99.90;;;;;;5049407;28;20124;-81
2022/06/08 09:51:36;;;;;;;3.65;1.42;;;21.00;99.90;;;;;;5030820;28;20080;-81
2022/06/08 09:54:33;;;;;;;2.78;1.77;;;21.00;99.90;;;;;;5005631;28;20131;-81
2022/06/08 09:57:27;;;;;;;3.05;1.25;;;21.10;99.90;;;;;;5050225;28;20474;-82
2022/06/08 09:59:55;;;;;;;4.65;1.80;;;21.20;99.90;;;;;;5049828;28;20049;-83
2022/06/08 10:02:45;;;;;;;3.78;1.73;;;21.10;99.90;;;;;;5049124;28;20495;-82
2022/06/08 10:05:16;;;;;;;4.25;1.83;;;21.00;99.90;;;;;;5030689;28;20040;-83
2022/06/08 10:08:06;;;;;;;4.53;1.60;;;20.70;99.90;;;;;;5050185;28;20521;-80
2022/06/08 10:10:38;;;;;;;4.53;2.75;;;20.50;99.90;;;;;;5049762;28;20045;-82
2022/06/08 10:13:16;;;;;;;3.65;2.38;;;20.40;99.90;;;;;;5049511;28;20045;-81
2022/06/08 10:15:52;;;;;;;3.47;2.00;;;20.10;99.90;;;;;;5048635;28;20570;-81
2022/06/08 10:18:28;;;;;;;8.55;2.88;;;20.00;99.90;;;;;;5048943;28;20049;-80
2022/06/08 10:21:00;;;;;;;3.92;2.60;;;20.00;99.90;;;;;;5032001;28;20045;-81
2022/06/08 10:23:44;;;;;;;3.67;2.10;;;20.10;99.90;;;;;;5049430;28;20128;-81
2022/06/08 10:26:34;;;;;;;4.63;2.13;;;20.20;99.90;;;;;;5048413;28;20037;-81
2022/06/08 10:29:10;;;;;;;3.25;2.03;;;20.30;99.90;;;;;;5029569;28;20041;-80
2022/06/08 10:31:45;;;;;;;3.05;2.30;;;20.40;99.90;;;;;;5049168;28;20487;-81
2022/06/08 10:34:44;;;;;;;3.50;2.08;;;20.60;99.90;;;;;;5032071;28;20051;-81
2022/06/08 10:37:20;;;;;;;5.57;2.63;;;20.80;99.90;;;;;;5005948;28;20045;-81
2022/06/08 10:39:47;;;;;;;5.35;2.70;;;21.00;99.90;;;;;;5049794;28;20086;-81
2022/06/08 10:42:40;;;;;;;5.47;3.10;;;21.40;99.90;;;;;;5052842;28;20056;-81
2022/06/08 10:45:22;;;;;;;4.78;2.85;;;21.70;99.90;;;;;;5036123;28;20048;-80
2022/06/08 10:47:53;;;;;;;4.55;2.88;;;22.10;99.90;;;;;;5033615;28;20088;-82
2022/06/08 10:50:38;;;;;;;4.13;3.15;;;21.90;99.90;;;;;;5041493;28;20052;-82
2022/06/08 10:56:34;;;;;;;5.85;3.25;;;21.60;99.90;;;;;;5051365;28;20506;-82
2022/06/08 10:59:03;;;;;;;4.53;3.58;;;21.40;99.90;;;;;;5006010;28;20479;-80
2022/06/08 11:01:53;;;;;;;7.32;2.72;;;21.20;99.90;;;;;;5052767;28;20468;-82
2022/06/08 11:04:31;;;;;;;5.85;2.95;;;21.10;99.90;;;;;;5051808;28;20037;-82
2022/06/08 11:07:10;;;;;;;5.95;2.60;;;21.00;99.90;;;;;;5052697;28;20102;-81
2022/06/08 11:09:36;;;;;;;4.35;2.80;;;20.80;99.90;;;;;;5052585;28;20037;-81
2022/06/08 11:12:15;;;;;;;5.57;3.20;;;20.70;99.90;;;;;;5052541;28;20037;-81
2022/06/08 11:14:44;;;;;;;5.85;3.30;;;20.60;99.90;;;;;;5052349;28;20447;-81
2022/06/08 11:17:23;;;;;;;6.07;3.20;;;20.40;99.90;;;;;;5052510;28;20098;-81
2022/06/08 11:19:53;;;;;;;4.88;3.83;;;20.40;99.90;;;;;;5052888;28;20049;-81
2022/06/08 11:22:50;;;;;;;10.35;3.70;;;20.20;99.90;;;;;;5052056;28;20037;-81
2022/06/08 11:25:43;;;;;;;8.50;3.70;;;20.00;99.90;;;;;;5034379;28;20154;-81
2022/06/08 11:28:29;;;;;;;4.67;3.40;;;19.80;99.90;;;;;;5035649;28;20036;-80
2022/06/08 11:31:08;;;;;;;5.95;3.60;;;19.60;99.90;;;;;;5052226;28;20167;-80
2022/06/08 11:33:50;;;;;;;5.00;3.58;;;19.50;99.90;;;;;;5052259;28;20037;-81
2022/06/08 11:36:40;;;;;;;7.00;3.47;;;19.30;99.90;;;;;;5052067;28;20041;-80
2022/06/08 11:39:27;;;;;;;6.22;3.80;;;19.20;99.90;;;;;;5052215;28;20403;-82
2022/06/08 11:41:57;;;;;;;4.78;3.20;;;19.20;99.90;;;;;;5051690;28;20045;-81
2022/06/08 11:44:31;;;;;;;5.57;3.80;;;19.20;99.90;;;;;;5051017;28;20042;-79
2022/06/08 11:47:16;;;;;;;5.72;3.70;;;19.10;99.90;;;;;;5051915;28;20108;-81
2022/06/08 11:49:55;;;;;;;5.28;3.78;;;19.00;99.90;;;;;;5034750;28;20048;-80
2022/06/08 11:52:29;;;;;;;8.95;4.65;;;19.00;99.90;;;;;;5052144;28;20084;-79
2022/06/08 11:55:21;;;;;;;7.53;4.40;;;18.90;99.90;;;;;;5050991;28;20044;-81
2022/06/08 11:58:04;;;;;;;7.20;4.40;;;18.90;99.90;;;;;;5034790;28;20513;-80
2022/06/08 12:00:55;;;;;;;5.93;4.03;;;18.90;99.90;;;;;;5051923;28;20544;-80
2022/06/08 12:03:25;;;;;;;5.32;4.20;;;18.90;99.90;;;;;;5051685;28;20174;-80
2022/06/08 12:06:08;;;;;;;5.88;4.28;;;18.90;99.90;;;;;;5051392;28;20049;-79
2022/06/08 12:08:39;;;;;;;7.18;4.60;;;18.90;99.90;;;;;;5051568;28;20221;-80
2022/06/08 12:11:06;;;;;;;7.85;4.63;;;19.00;99.90;;;;;;5051507;28;20079;-81
2022/06/08 12:13:32;;;;;;;6.93;4.55;;;19.00;99.90;;;;;;5035308;28;20045;-80
2022/06/08 12:16:18;;;;;;;7.20;4.53;;;19.10;99.90;;;;;;5034241;28;20044;-79
2022/06/08 12:18:46;;;;;;;7.78;4.57;;;19.30;99.90;;;;;;5051622;28;20037;-80
2022/06/08 12:21:27;;;;;;;6.18;4.60;;;19.60;99.90;;;;;;5051674;28;20048;-80
2022/06/08 12:24:00;;;;;;;6.50;4.72;;;20.20;99.90;;;;;;5014801;28;20124;-81
2022/06/08 12:26:37;;;;;;;9.27;4.97;;;20.60;99.90;;;;;;5033376;28;20579;-80
2022/06/08 12:29:28;;;;;;;12.68;5.78;;;20.60;99.90;;;;;;5051992;28;20275;-78
2022/06/08 12:31:59;;;;;;;18.27;5.75;;;20.40;99.90;;;;;;5052796;28;20079;-79
2022/06/08 12:34:28;;;;;;;8.52;5.07;;;20.00;99.90;;;;;;5052269;28;20045;-81
2022/06/08 12:36:53;;;;;;;10.27;5.30;;;19.50;99.90;;;;;;5053604;28;20066;-79
2022/06/08 12:39:29;;;;;;;8.85;4.47;;;19.20;99.90;;;;;;5051500;28;20498;-80
2022/06/08 12:41:55;;;;;;;4.57;2.42;;;18.80;99.90;;;;;;5045206;28;20525;-80
2022/06/08 12:44:24;;;;;;;6.93;2.30;;;18.50;99.90;;;;;;5054183;28;20043;-81
2022/06/08 12:47:14;;;;;;;5.93;1.60;;;18.20;99.90;;;;;;5053320;28;20072;-81
2022/06/08 12:49:43;;;;;;;5.07;1.40;;;18.00;99.90;;;;;;5052135;28;20120;-80
2022/06/08 12:52:23;;;;;;;4.90;1.67;;;17.80;99.90;;;;;;5052211;28;20041;-80
2022/06/08 12:54:49;;;;;;;6.22;1.90;;;17.70;99.90;;;;;;5034564;28;20102;-81
2022/06/08 12:57:22;;;;;;;4.53;1.73;;;17.70;99.90;;;;;;5053041;28;20040;-80
2022/06/08 12:59:50;;;;;;;6.50;1.80;;;17.60;99.90;;;;;;5051226;28;20100;-81
2022/06/08 13:02:25;;;;;;;4.85;1.73;;;17.60;99.90;;;;;;5051346;28;20037;-81
2022/06/08 13:04:52;;;;;;;6.10;1.88;;;17.60;99.90;;;;;;5050304;28;20403;-82
2022/06/08 13:07:20;;;;;;;3.40;1.90;;;17.50;99.90;;;;;;5050046;28;20036;-80
2022/06/08 13:09:48;;;;;;;3.47;1.73;;;17.50;99.90;;;;;;5026021;28;20040;-80
2022/06/08 13:12:21;;;;;;;3.03;2.00;;;17.60;99.90;;;;;;5047713;28;20049;-80
2022/06/08 13:14:47;;;;;;;;;;;17.50;99.90;;;;;;5026148;28;20037;-81
2022/06/08 13:17:13;;;;;;;6.70;2.70;;;17.50;99.90;;;;;;5050366;28;20012;-81
2022/06/08 13:19:39;;;;;;;6.40;3.00;;;17.50;99.90;;;;;;5050481;28;20096;-81